sensor_id;sensor_type;location;lat;lon;timestamp;pressure;altitude;pressure_sealevel;temperature;humidity
9893;BME280;4985;49.092;8.542;2023-05-23T00:00:36;99179.72;;;23.41;51.87
9893;BME280;4985;49.092;8.542;2023-05-23T00:03:03;99170.03;;;23.40;51.88
9893;BME280;4985;49.092;8.542;2023-05-23T00:05:29;99176.22;;;23.40;51.89
9893;BME280;4985;49.092;8.542;2023-05-23T00:07:56;99165.72;;;23.39;51.89
9893;BME280;4985;49.092;8.542;2023-05-23T00:10:22;99165.72;;;23.39;51.90
9893;BME280;4985;49.092;8.542;2023-05-23T00:12:50;99165.72;;;23.39;51.90
9893;BME280;4985;49.092;8.542;2023-05-23T00:15:17;99169.47;;;23.38;51.91
9893;BME280;4985;49.092;8.542;2023-05-23T00:17:44;99167.59;;;23.38;51.90
9893;BME280;4985;49.092;8.542;2023-05-23T00:20:11;99172.97;;;23.38;51.91
9893;BME280;4985;49.092;8.542;2023-05-23T00:22:38;99172.97;;;23.38;51.91
9893;BME280;4985;49.092;8.542;2023-05-23T00:25:07;99178.34;;;23.38;51.91
9893;BME280;4985;49.092;8.542;2023-05-23T00:27:34;99170.53;;;23.37;51.92
9893;BME280;4985;49.092;8.542;2023-05-23T00:30:02;99179.41;;;23.37;51.92
9893;BME280;4985;49.092;8.542;2023-05-23T00:32:29;99173.22;;;23.37;51.92
9893;BME280;4985;49.092;8.542;2023-05-23T00:34:55;99174.03;;;23.37;51.92
9893;BME280;4985;49.092;8.542;2023-05-23T00:37:22;99178.59;;;23.37;51.92
9893;BME280;4985;49.092;8.542;2023-05-23T00:39:48;99178.59;;;23.37;51.93
9893;BME280;4985;49.092;8.542;2023-05-23T00:42:15;99183.97;;;23.37;51.93
9893;BME280;4985;49.092;8.542;2023-05-23T00:44:42;99177.78;;;23.36;51.94
9893;BME280;4985;49.092;8.542;2023-05-23T00:47:10;99182.34;;;23.36;51.95
9893;BME280;4985;49.092;8.542;2023-05-23T00:49:38;99176.97;;;23.36;51.97
9893;BME280;4985;49.092;8.542;2023-05-23T00:52:05;99182.34;;;23.36;51.95
9893;BME280;4985;49.092;8.542;2023-05-23T00:54:32;99187.72;;;23.36;52.01
9893;BME280;4985;49.092;8.542;2023-05-23T00:56:59;99182.34;;;23.36;51.97
9893;BME280;4985;49.092;8.542;2023-05-23T00:59:26;99186.09;;;23.35;51.99
9893;BME280;4985;49.092;8.542;2023-05-23T01:01:54;99181.53;;;23.35;51.99
9893;BME280;4985;49.092;8.542;2023-05-23T01:04:22;99181.53;;;23.35;51.96
9893;BME280;4985;49.092;8.542;2023-05-23T01:06:51;99182.34;;;23.36;51.99
9893;BME280;4985;49.092;8.542;2023-05-23T01:09:19;99194.97;;;23.35;51.99
9893;BME280;4985;49.092;8.542;2023-05-23T01:11:52;99190.66;;;23.34;52.00
9893;BME280;4985;49.092;8.542;2023-05-23T01:14:25;99190.66;;;23.34;52.00
9893;BME280;4985;49.092;8.542;2023-05-23T01:16:57;99186.91;;;23.35;52.01
9893;BME280;4985;49.092;8.542;2023-05-23T01:19:48;99182.34;;;23.36;52.03
9893;BME280;4985;49.092;8.542;2023-05-23T01:22:22;99189.59;;;23.35;52.02
9893;BME280;4985;49.092;8.542;2023-05-23T01:24:57;99180.72;;;23.35;52.02
9893;BME280;4985;49.092;8.542;2023-05-23T01:27:42;99184.47;;;23.34;52.03
9893;BME280;4985;49.092;8.542;2023-05-23T01:30:11;99185.50;;;23.33;52.04
9893;BME280;4985;49.092;8.542;2023-05-23T01:32:39;99188.19;;;23.33;52.04
9893;BME280;4985;49.092;8.542;2023-05-23T01:35:06;99187.38;;;23.32;52.03
9893;BME280;4985;49.092;8.542;2023-05-23T01:37:33;99194.63;;;23.32;52.06
9893;BME280;4985;49.092;8.542;2023-05-23T01:39:59;99196.50;;;23.31;52.08
9893;BME280;4985;49.092;8.542;2023-05-23T01:42:26;99201.88;;;23.31;52.08
9893;BME280;4985;49.092;8.542;2023-05-23T01:44:54;99195.69;;;23.31;52.09
9893;BME280;4985;49.092;8.542;2023-05-23T01:47:23;99199.19;;;23.31;52.09
9893;BME280;4985;49.092;8.542;2023-05-23T01:49:50;99197.56;;;23.30;52.07
9893;BME280;4985;49.092;8.542;2023-05-23T01:52:19;99201.31;;;23.29;52.10
9893;BME280;4985;49.092;8.542;2023-05-23T01:54:46;99200.50;;;23.29;52.09
9893;BME280;4985;49.092;8.542;2023-05-23T01:57:13;99204.00;;;23.29;52.10
9893;BME280;4985;49.092;8.542;2023-05-23T01:59:41;99201.31;;;23.29;52.08
9893;BME280;4985;49.092;8.542;2023-05-23T02:02:09;99204.00;;;23.29;52.08
9893;BME280;4985;49.092;8.542;2023-05-23T02:04:36;99201.31;;;23.29;52.10
9893;BME280;4985;49.092;8.542;2023-05-23T02:07:03;99204.81;;;23.30;52.09
9893;BME280;4985;49.092;8.542;2023-05-23T02:09:30;99204.00;;;23.29;52.08
9893;BME280;4985;49.092;8.542;2023-05-23T02:11:56;99208.56;;;23.29;52.08
9893;BME280;4985;49.092;8.542;2023-05-23T02:14:23;99207.75;;;23.28;52.08
9893;BME280;4985;49.092;8.542;2023-05-23T02:16:50;99205.88;;;23.29;52.09
9893;BME280;4985;49.092;8.542;2023-05-23T02:19:19;99207.75;;;23.28;52.09
9893;BME280;4985;49.092;8.542;2023-05-23T02:21:45;99203.69;;;23.26;52.10
9893;BME280;4985;49.092;8.542;2023-05-23T02:24:12;99206.13;;;23.27;52.10
9893;BME280;4985;49.092;8.542;2023-05-23T02:26:39;99211.50;;;23.27;52.11
9893;BME280;4985;49.092;8.542;2023-05-23T02:29:05;99203.69;;;23.26;52.10
9893;BME280;4985;49.092;8.542;2023-05-23T02:31:33;99214.44;;;23.26;52.10
9893;BME280;4985;49.092;8.542;2023-05-23T02:33:59;99209.06;;;23.26;52.11
9893;BME280;4985;49.092;8.542;2023-05-23T02:36:27;99219.81;;;23.26;52.10
9893;BME280;4985;49.092;8.542;2023-05-23T02:38:54;99218.19;;;23.24;52.11
9893;BME280;4985;49.092;8.542;2023-05-23T02:41:21;99213.88;;;23.23;52.12
9893;BME280;4985;49.092;8.542;2023-05-23T02:43:47;99212.81;;;23.24;52.12
9893;BME280;4985;49.092;8.542;2023-05-23T02:46:14;99217.38;;;23.24;52.13
9893;BME280;4985;49.092;8.542;2023-05-23T02:48:40;99211.19;;;23.23;52.13
9893;BME280;4985;49.092;8.542;2023-05-23T02:51:07;99221.13;;;23.23;52.13
9893;BME280;4985;49.092;8.542;2023-05-23T02:53:35;99219.25;;;23.23;52.13
9893;BME280;4985;49.092;8.542;2023-05-23T02:56:01;99221.13;;;23.23;52.13
9893;BME280;4985;49.092;8.542;2023-05-23T02:58:28;99225.69;;;23.22;52.15
9893;BME280;4985;49.092;8.542;2023-05-23T03:00:56;99230.25;;;23.22;52.15
9893;BME280;4985;49.092;8.542;2023-05-23T03:03:22;99222.19;;;23.22;52.14
9893;BME280;4985;49.092;8.542;2023-05-23T03:05:49;99218.66;;;23.21;52.14
9893;BME280;4985;49.092;8.542;2023-05-23T03:08:15;99225.69;;;23.22;52.15
9893;BME280;4985;49.092;8.542;2023-05-23T03:10:43;99224.03;;;23.21;52.15
9893;BME280;4985;49.092;8.542;2023-05-23T03:13:10;99223.22;;;23.21;52.15
9893;BME280;4985;49.092;8.542;2023-05-23T03:15:36;99226.72;;;23.21;52.16
9893;BME280;4985;49.092;8.542;2023-05-23T03:18:03;99227.78;;;23.20;52.15
9893;BME280;4985;49.092;8.542;2023-05-23T03:20:29;99222.41;;;23.20;52.15
9893;BME280;4985;49.092;8.542;2023-05-23T03:22:56;99224.28;;;23.20;52.17
9893;BME280;4985;49.092;8.542;2023-05-23T03:25:23;99220.78;;;23.19;52.16
9893;BME280;4985;49.092;8.542;2023-05-23T03:27:51;99229.91;;;23.18;52.15
9893;BME280;4985;49.092;8.542;2023-05-23T03:30:18;99233.41;;;23.19;52.16
9893;BME280;4985;49.092;8.542;2023-05-23T03:32:45;99236.91;;;23.19;52.16
9893;BME280;4985;49.092;8.542;2023-05-23T03:35:11;99235.28;;;23.18;52.15
9893;BME280;4985;49.092;8.542;2023-05-23T03:37:38;99235.28;;;23.18;52.16
9893;BME280;4985;49.092;8.542;2023-05-23T03:40:06;99244.97;;;23.19;52.16
9893;BME280;4985;49.092;8.542;2023-05-23T03:42:34;99244.41;;;23.17;52.16
9893;BME280;4985;49.092;8.542;2023-05-23T03:45:03;99249.75;;;23.17;52.16
9893;BME280;4985;49.092;8.542;2023-05-23T03:47:30;99249.75;;;23.17;52.16
9893;BME280;4985;49.092;8.542;2023-05-23T03:49:57;99248.13;;;23.16;52.17
9893;BME280;4985;49.092;8.542;2023-05-23T03:52:23;99254.31;;;23.17;52.17
9893;BME280;4985;49.092;8.542;2023-05-23T03:54:50;99256.19;;;23.16;52.18
9893;BME280;4985;49.092;8.542;2023-05-23T03:57:16;99255.13;;;23.17;52.19
9893;BME280;4985;49.092;8.542;2023-05-23T03:59:43;99258.06;;;23.16;52.18
9893;BME280;4985;49.092;8.542;2023-05-23T04:02:11;99258.88;;;23.16;52.18
9893;BME280;4985;49.092;8.542;2023-05-23T04:04:37;99257.25;;;23.15;52.18
9893;BME280;4985;49.092;8.542;2023-05-23T04:07:05;99254.56;;;23.15;52.19
9893;BME280;4985;49.092;8.542;2023-05-23T04:09:33;99257.25;;;23.15;52.19
9893;BME280;4985;49.092;8.542;2023-05-23T04:11:59;99255.63;;;23.14;52.20
9893;BME280;4985;49.092;8.542;2023-05-23T04:14:26;99261.00;;;23.14;52.21
9893;BME280;4985;49.092;8.542;2023-05-23T04:16:53;99259.38;;;23.13;52.20
9893;BME280;4985;49.092;8.542;2023-05-23T04:19:21;99257.75;;;23.12;52.22
9893;BME280;4985;49.092;8.542;2023-05-23T04:21:48;99261.25;;;23.13;52.23
9893;BME280;4985;49.092;8.542;2023-05-23T04:24:14;99259.38;;;23.13;52.22
9893;BME280;4985;49.092;8.542;2023-05-23T04:26:41;99263.13;;;23.12;52.23
9893;BME280;4985;49.092;8.542;2023-05-23T04:29:07;99263.13;;;23.12;52.24
9893;BME280;4985;49.092;8.542;2023-05-23T04:31:36;99265.81;;;23.12;52.24
9893;BME280;4985;49.092;8.542;2023-05-23T04:34:02;99266.88;;;23.11;52.25
9893;BME280;4985;49.092;8.542;2023-05-23T04:36:30;99276.81;;;23.11;52.26
9893;BME280;4985;49.092;8.542;2023-05-23T04:38:57;99272.25;;;23.11;52.27
9893;BME280;4985;49.092;8.542;2023-05-23T04:41:23;99278.44;;;23.12;52.27
9893;BME280;4985;49.092;8.542;2023-05-23T04:43:50;99280.53;;;23.10;52.26
9893;BME280;4985;49.092;8.542;2023-05-23T04:46:18;99284.00;;;23.10;52.25
9893;BME280;4985;49.092;8.542;2023-05-23T04:48:47;99286.69;;;23.10;52.26
9893;BME280;4985;49.092;8.542;2023-05-23T04:51:14;99289.38;;;23.10;52.24
9893;BME280;4985;49.092;8.542;2023-05-23T04:53:42;99284.00;;;23.10;52.25
9893;BME280;4985;49.092;8.542;2023-05-23T04:56:09;99291.25;;;23.10;52.25
9893;BME280;4985;49.092;8.542;2023-05-23T04:58:35;99290.44;;;23.09;52.27
9893;BME280;4985;49.092;8.542;2023-05-23T05:01:02;99290.44;;;23.09;52.27
9893;BME280;4985;49.092;8.542;2023-05-23T05:03:30;99295.00;;;23.09;52.28
9893;BME280;4985;49.092;8.542;2023-05-23T05:05:57;99294.19;;;23.08;52.28
9893;BME280;4985;49.092;8.542;2023-05-23T05:08:23;99299.81;;;23.07;52.29
9893;BME280;4985;49.092;8.542;2023-05-23T05:10:52;99297.13;;;23.07;52.31
9893;BME280;4985;49.092;8.542;2023-05-23T05:13:19;99300.06;;;23.05;52.33
9893;BME280;4985;49.092;8.542;2023-05-23T05:15:45;99292.00;;;23.05;52.34
9893;BME280;4985;49.092;8.542;2023-05-23T05:18:12;99299.25;;;23.05;52.36
9893;BME280;4985;49.092;8.542;2023-05-23T05:20:40;99301.13;;;23.04;52.37
9893;BME280;4985;49.092;8.542;2023-05-23T05:23:07;99300.31;;;23.04;52.38
9893;BME280;4985;49.092;8.542;2023-05-23T05:25:34;99299.50;;;23.03;52.38
9893;BME280;4985;49.092;8.542;2023-05-23T05:28:03;99302.19;;;23.03;52.38
9893;BME280;4985;49.092;8.542;2023-05-23T05:30:31;99303.00;;;23.04;52.40
9893;BME280;4985;49.092;8.542;2023-05-23T05:32:59;99299.50;;;23.03;52.41
9893;BME280;4985;49.092;8.542;2023-05-23T05:35:26;99307.56;;;23.03;52.42
9893;BME280;4985;49.092;8.542;2023-05-23T05:37:53;99308.34;;;23.04;52.44
9893;BME280;4985;49.092;8.542;2023-05-23T05:40:19;99307.56;;;23.03;52.43
9893;BME280;4985;49.092;8.542;2023-05-23T05:42:46;99312.09;;;23.03;52.43
9893;BME280;4985;49.092;8.542;2023-05-23T05:45:14;99320.97;;;23.03;52.44
9893;BME280;4985;49.092;8.542;2023-05-23T05:47:41;99323.66;;;23.03;52.44
9893;BME280;4985;49.092;8.542;2023-05-23T05:50:08;99317.47;;;23.03;52.46
9893;BME280;4985;49.092;8.542;2023-05-23T05:52:35;99330.09;;;23.02;52.47
9893;BME280;4985;49.092;8.542;2023-05-23T05:55:04;99319.34;;;23.02;52.47
9893;BME280;4985;49.092;8.542;2023-05-23T05:57:31;99316.66;;;23.02;52.49
9893;BME280;4985;49.092;8.542;2023-05-23T05:59:58;99315.84;;;23.02;52.48
9893;BME280;4985;49.092;8.542;2023-05-23T06:02:26;99327.41;;;23.02;52.49
9893;BME280;4985;49.092;8.542;2023-05-23T06:04:53;99333.59;;;23.03;52.49
9893;BME280;4985;49.092;8.542;2023-05-23T06:07:19;99338.94;;;23.03;52.51
9893;BME280;4985;49.092;8.542;2023-05-23T06:09:46;99335.22;;;23.04;52.49
9893;BME280;4985;49.092;8.542;2023-05-23T06:12:12;99339.75;;;23.03;52.50
9893;BME280;4985;49.092;8.542;2023-05-23T06:14:39;99354.25;;;23.02;52.49
9893;BME280;4985;49.092;8.542;2023-05-23T06:17:05;99343.50;;;23.02;52.50
9893;BME280;4985;49.092;8.542;2023-05-23T06:19:34;99355.88;;;23.03;52.51
9893;BME280;4985;49.092;8.542;2023-05-23T06:22:02;99355.06;;;23.03;52.52
9893;BME280;4985;49.092;8.542;2023-05-23T06:24:29;99360.44;;;23.03;52.53
9893;BME280;4985;49.092;8.542;2023-05-23T06:26:56;99366.59;;;23.03;52.53
9893;BME280;4985;49.092;8.542;2023-05-23T06:29:22;99364.97;;;23.02;52.53
9893;BME280;4985;49.092;8.542;2023-05-23T06:31:49;99377.34;;;23.03;52.52
9893;BME280;4985;49.092;8.542;2023-05-23T06:34:15;99366.59;;;23.03;52.52
9893;BME280;4985;49.092;8.542;2023-05-23T06:36:43;99371.16;;;23.03;52.52
9893;BME280;4985;49.092;8.542;2023-05-23T06:39:11;99370.34;;;23.02;52.52
9893;BME280;4985;49.092;8.542;2023-05-23T06:41:37;99387.28;;;23.03;52.52
9893;BME280;4985;49.092;8.542;2023-05-23T06:44:04;99382.72;;;23.03;52.52
9893;BME280;4985;49.092;8.542;2023-05-23T06:46:31;99381.09;;;23.02;52.52
9893;BME280;4985;49.092;8.542;2023-05-23T06:48:58;99388.09;;;23.03;52.52
9893;BME280;4985;49.092;8.542;2023-05-23T06:51:24;99397.22;;;23.02;52.52
9893;BME280;4985;49.092;8.542;2023-05-23T06:53:52;99398.81;;;23.03;52.52
9893;BME280;4985;49.092;8.542;2023-05-23T06:56:20;99400.44;;;23.04;52.51
9893;BME280;4985;49.092;8.542;2023-05-23T06:58:47;99404.19;;;23.03;52.51
9893;BME280;4985;49.092;8.542;2023-05-23T07:01:14;99411.19;;;23.04;52.50
9893;BME280;4985;49.092;8.542;2023-05-23T07:03:40;99412.25;;;23.03;52.50
9893;BME280;4985;49.092;8.542;2023-05-23T07:06:09;99406.06;;;23.03;52.52
9893;BME280;4985;49.092;8.542;2023-05-23T07:08:36;99410.62;;;23.02;52.54
9893;BME280;4985;49.092;8.542;2023-05-23T07:11:05;99412.50;;;23.02;52.56
9893;BME280;4985;49.092;8.542;2023-05-23T07:13:32;99413.56;;;23.01;52.59
9893;BME280;4985;49.092;8.542;2023-05-23T07:15:58;99420.78;;;23.00;52.59
9893;BME280;4985;49.092;8.542;2023-05-23T07:18:25;99425.09;;;23.01;52.60
9893;BME280;4985;49.092;8.542;2023-05-23T07:20:51;99423.25;;;23.02;52.61
9893;BME280;4985;49.092;8.542;2023-05-23T07:23:18;99427.78;;;23.01;52.62
9893;BME280;4985;49.092;8.542;2023-05-23T07:25:45;99428.59;;;23.02;52.62
9893;BME280;4985;49.092;8.542;2023-05-23T07:28:13;99436.91;;;23.00;52.64
9893;BME280;4985;49.092;8.542;2023-05-23T07:30:41;99432.34;;;23.01;52.65
9893;BME280;4985;49.092;8.542;2023-05-23T07:33:07;99431.53;;;23.00;52.65
9893;BME280;4985;49.092;8.542;2023-05-23T07:35:34;99443.91;;;23.01;52.65
9893;BME280;4985;49.092;8.542;2023-05-23T07:38:01;99446.03;;;22.99;52.66
9893;BME280;4985;49.092;8.542;2023-05-23T07:40:29;99446.84;;;23.00;52.67
9893;BME280;4985;49.092;8.542;2023-05-23T07:42:55;99451.38;;;22.99;52.68
9893;BME280;4985;49.092;8.542;2023-05-23T07:45:23;99439.59;;;23.00;52.67
9893;BME280;4985;49.092;8.542;2023-05-23T07:47:50;99447.66;;;23.00;52.64
9893;BME280;4985;49.092;8.542;2023-05-23T07:50:17;99451.13;;;23.01;52.64
9893;BME280;4985;49.092;8.542;2023-05-23T07:52:44;99444.72;;;23.02;52.64
9893;BME280;4985;49.092;8.542;2023-05-23T07:55:10;99442.03;;;23.02;52.61
9893;BME280;4985;49.092;8.542;2023-05-23T07:57:37;99444.47;;;23.03;52.61
9893;BME280;4985;49.092;8.542;2023-05-23T08:00:04;99447.16;;;23.03;52.61
9893;BME280;4985;49.092;8.542;2023-05-23T08:02:32;99454.41;;;23.03;52.62
9893;BME280;4985;49.092;8.542;2023-05-23T08:04:59;99455.22;;;23.03;52.61
9893;BME280;4985;49.092;8.542;2023-05-23T08:07:26;99452.53;;;23.03;52.61
9893;BME280;4985;49.092;8.542;2023-05-23T08:09:52;99462.22;;;23.04;52.62
9893;BME280;4985;49.092;8.542;2023-05-23T08:12:19;99443.41;;;23.04;52.63
9893;BME280;4985;49.092;8.542;2023-05-23T08:14:45;99449.59;;;23.05;52.63
9893;BME280;4985;49.092;8.542;2023-05-23T08:17:12;99457.41;;;23.06;52.62
9893;BME280;4985;49.092;8.542;2023-05-23T08:19:40;99452.03;;;23.06;52.62
9893;BME280;4985;49.092;8.542;2023-05-23T08:22:08;99455.78;;;23.05;52.64
9893;BME280;4985;49.092;8.542;2023-05-23T08:24:34;99450.41;;;23.05;52.66
9893;BME280;4985;49.092;8.542;2023-05-23T08:27:01;99459.53;;;23.04;52.66
9893;BME280;4985;49.092;8.542;2023-05-23T08:29:27;99454.16;;;23.04;52.67
9893;BME280;4985;49.092;8.542;2023-05-23T08:31:54;99456.59;;;23.06;52.67
9893;BME280;4985;49.092;8.542;2023-05-23T08:34:20;99463.03;;;23.05;52.67
9893;BME280;4985;49.092;8.542;2023-05-23T08:36:48;99458.47;;;23.05;52.67
9893;BME280;4985;49.092;8.542;2023-05-23T08:39:15;99464.91;;;23.04;52.67
9893;BME280;4985;49.092;8.542;2023-05-23T08:41:41;99467.56;;;23.04;52.67
9893;BME280;4985;49.092;8.542;2023-05-23T08:44:08;99473.50;;;23.06;52.68
9893;BME280;4985;49.092;8.542;2023-05-23T08:46:38;99470.84;;;23.06;52.67
9893;BME280;4985;49.092;8.542;2023-05-23T08:49:06;99473.28;;;23.08;52.64
9893;BME280;4985;49.092;8.542;2023-05-23T08:51:34;99475.16;;;23.07;52.62
9893;BME280;4985;49.092;8.542;2023-05-23T08:54:04;99474.34;;;23.07;52.62
9893;BME280;4985;49.092;8.542;2023-05-23T08:56:33;99474.34;;;23.07;52.63
9893;BME280;4985;49.092;8.542;2023-05-23T08:59:00;99483.19;;;23.07;52.65
9893;BME280;4985;49.092;8.542;2023-05-23T09:01:28;99477.84;;;23.07;52.64
9893;BME280;4985;49.092;8.542;2023-05-23T09:03:55;99482.13;;;23.08;52.63
9893;BME280;4985;49.092;8.542;2023-05-23T09:06:27;99489.13;;;23.09;52.60
9893;BME280;4985;49.092;8.542;2023-05-23T09:08:53;99484.59;;;23.10;52.60
9893;BME280;4985;49.092;8.542;2023-05-23T09:11:21;99484.59;;;23.10;52.59
9893;BME280;4985;49.092;8.542;2023-05-23T09:13:48;99496.13;;;23.10;52.58
9893;BME280;4985;49.092;8.542;2023-05-23T09:16:15;99484.38;;;23.11;52.55
9893;BME280;4985;49.092;8.542;2023-05-23T09:18:43;99489.75;;;23.11;52.55
9893;BME280;4985;49.092;8.542;2023-05-23T09:21:11;99499.41;;;23.12;52.54
9893;BME280;4985;49.092;8.542;2023-05-23T09:23:39;99496.75;;;23.12;52.53
9893;BME280;4985;49.092;8.542;2023-05-23T09:26:07;99488.31;;;23.09;52.55
9893;BME280;4985;49.092;8.542;2023-05-23T09:28:36;99496.13;;;23.10;52.57
9893;BME280;4985;49.092;8.542;2023-05-23T09:31:04;99493.44;;;23.10;52.60
9893;BME280;4985;49.092;8.542;2023-05-23T09:33:37;99496.13;;;23.10;52.62
9893;BME280;4985;49.092;8.542;2023-05-23T09:36:05;99489.38;;;23.08;52.65
9893;BME280;4985;49.092;8.542;2023-05-23T09:38:33;99496.13;;;23.10;52.66
9893;BME280;4985;49.092;8.542;2023-05-23T09:41:03;99494.50;;;23.09;52.67
9893;BME280;4985;49.092;8.542;2023-05-23T09:43:29;99494.75;;;23.08;52.70
9893;BME280;4985;49.092;8.542;2023-05-23T09:46:06;99500.94;;;23.08;52.72
9893;BME280;4985;49.092;8.542;2023-05-23T09:48:32;99504.69;;;23.07;52.75
9893;BME280;4985;49.092;8.542;2023-05-23T09:51:03;99497.44;;;23.08;52.78
9893;BME280;4985;49.092;8.542;2023-05-23T09:53:29;99497.69;;;23.06;52.79
9893;BME280;4985;49.092;8.542;2023-05-23T09:55:57;99496.63;;;23.07;52.80
9893;BME280;4985;49.092;8.542;2023-05-23T09:58:25;99497.44;;;23.08;52.78
9893;BME280;4985;49.092;8.542;2023-05-23T10:00:54;99492.06;;;23.08;52.76
9893;BME280;4985;49.092;8.542;2023-05-23T10:03:26;99498.25;;;23.08;52.78
9893;BME280;4985;49.092;8.542;2023-05-23T10:05:59;99491.25;;;23.07;52.79
9893;BME280;4985;49.092;8.542;2023-05-23T10:08:31;99504.44;;;23.09;52.80
9893;BME280;4985;49.092;8.542;2023-05-23T10:14:06;99494.50;;;23.09;52.81
9893;BME280;4985;49.092;8.542;2023-05-23T10:16:39;99498.00;;;23.10;52.81
9893;BME280;4985;49.092;8.542;2023-05-23T10:19:16;99501.50;;;23.10;52.82
9893;BME280;4985;49.092;8.542;2023-05-23T10:21:49;99496.13;;;23.10;52.81
9893;BME280;4985;49.092;8.542;2023-05-23T10:24:16;99498.59;;;23.12;52.80
9893;BME280;4985;49.092;8.542;2023-05-23T10:26:44;99496.75;;;23.12;52.76
9893;BME280;4985;49.092;8.542;2023-05-23T10:29:11;99503.75;;;23.13;52.74
9893;BME280;4985;49.092;8.542;2023-05-23T10:31:38;99501.06;;;23.13;52.74
9893;BME280;4985;49.092;8.542;2023-05-23T10:34:14;99502.91;;;23.13;52.77
9893;BME280;4985;49.092;8.542;2023-05-23T10:36:52;99505.59;;;23.13;52.77
9893;BME280;4985;49.092;8.542;2023-05-23T10:39:27;99504.78;;;23.12;52.77
9893;BME280;4985;49.092;8.542;2023-05-23T10:42:01;99501.88;;;23.14;52.77
9893;BME280;4985;49.092;8.542;2023-05-23T10:44:29;99502.69;;;23.14;52.78
9893;BME280;4985;49.092;8.542;2023-05-23T10:46:57;99497.31;;;23.14;52.79
9893;BME280;4985;49.092;8.542;2023-05-23T10:49:40;99498.94;;;23.15;52.79
9893;BME280;4985;49.092;8.542;2023-05-23T10:52:08;99497.31;;;23.14;52.81
9893;BME280;4985;49.092;8.542;2023-05-23T10:54:35;99493.00;;;23.13;52.85
9893;BME280;4985;49.092;8.542;2023-05-23T10:57:03;99484.59;;;23.10;52.90
9893;BME280;4985;49.092;8.542;2023-05-23T10:59:30;99486.25;;;23.11;52.94
9893;BME280;4985;49.092;8.542;2023-05-23T11:01:57;99492.44;;;23.11;52.96
9893;BME280;4985;49.092;8.542;2023-05-23T11:04:25;99498.81;;;23.10;52.99
9893;BME280;4985;49.092;8.542;2023-05-23T11:06:54;99507.72;;;23.11;52.99
9893;BME280;4985;49.092;8.542;2023-05-23T11:09:21;99500.47;;;23.11;53.00
9893;BME280;4985;49.092;8.542;2023-05-23T11:11:58;99489.50;;;23.13;52.97
9893;BME280;4985;49.092;8.542;2023-05-23T11:14:51;99494.06;;;23.12;52.96
9893;BME280;4985;49.092;8.542;2023-05-23T11:17:29;99495.69;;;23.13;52.97
9893;BME280;4985;49.092;8.542;2023-05-23T11:19:58;99489.13;;;23.09;52.97
9893;BME280;4985;49.092;8.542;2023-05-23T11:22:30;99501.06;;;23.13;52.98
9893;BME280;4985;49.092;8.542;2023-05-23T11:24:57;99498.13;;;23.15;52.97
9893;BME280;4985;49.092;8.542;2023-05-23T11:27:28;99496.75;;;23.12;52.96
9893;BME280;4985;49.092;8.542;2023-05-23T11:30:00;99496.81;;;23.17;53.02
9893;BME280;4985;49.092;8.542;2023-05-23T11:32:29;99494.12;;;23.17;52.98
9893;BME280;4985;49.092;8.542;2023-05-23T11:34:58;99500.31;;;23.18;52.97
9893;BME280;4985;49.092;8.542;2023-05-23T11:37:26;99498.44;;;23.18;52.97
9893;BME280;4985;49.092;8.542;2023-05-23T11:39:54;99496.81;;;23.17;52.99
9893;BME280;4985;49.092;8.542;2023-05-23T11:42:21;99493.06;;;23.18;53.01
9893;BME280;4985;49.092;8.542;2023-05-23T11:44:48;99485.75;;;23.14;53.01
9893;BME280;4985;49.092;8.542;2023-05-23T11:47:14;99491.44;;;23.17;53.03
9893;BME280;4985;49.092;8.542;2023-05-23T11:49:43;99490.41;;;23.18;53.05
9893;BME280;4985;49.092;8.542;2023-05-23T11:52:10;99480.94;;;23.16;53.04
9893;BME280;4985;49.092;8.542;2023-05-23T11:54:39;99481.28;;;23.19;53.06
9893;BME280;4985;49.092;8.542;2023-05-23T11:57:08;99483.97;;;23.19;53.07
9893;BME280;4985;49.092;8.542;2023-05-23T11:59:35;99487.47;;;23.20;53.08
9893;BME280;4985;49.092;8.542;2023-05-23T12:02:02;99483.97;;;23.19;53.09
9893;BME280;4985;49.092;8.542;2023-05-23T12:04:29;99484.78;;;23.20;53.10
9893;BME280;4985;49.092;8.542;2023-05-23T12:06:55;99489.09;;;23.21;53.09
9893;BME280;4985;49.092;8.542;2023-05-23T12:09:22;99476.47;;;23.21;53.07
9893;BME280;4985;49.092;8.542;2023-05-23T12:11:49;99483.50;;;23.22;53.03
9893;BME280;4985;49.092;8.542;2023-05-23T12:14:17;99494.25;;;23.22;53.04
9893;BME280;4985;49.092;8.542;2023-05-23T12:16:45;99491.31;;;23.24;53.03
9893;BME280;4985;49.092;8.542;2023-05-23T12:19:12;99496.44;;;23.26;53.00
9893;BME280;4985;49.092;8.542;2023-05-23T12:21:41;99493.50;;;23.27;52.95
9893;BME280;4985;49.092;8.542;2023-05-23T12:24:15;99492.44;;;23.28;52.92
9893;BME280;4985;49.092;8.542;2023-05-23T12:26:46;99487.09;;;23.28;52.89
9893;BME280;4985;49.092;8.542;2023-05-23T12:29:13;99494.09;;;23.29;52.86
9893;BME280;4985;49.092;8.542;2023-05-23T12:31:42;99492.22;;;23.30;52.84
9893;BME280;4985;49.092;8.542;2023-05-23T12:34:10;99489.53;;;23.30;52.83
9893;BME280;4985;49.092;8.542;2023-05-23T12:36:36;99490.34;;;23.30;52.82
9893;BME280;4985;49.092;8.542;2023-05-23T12:39:04;99484.16;;;23.30;52.81
9893;BME280;4985;49.092;8.542;2023-05-23T12:41:32;99491.97;;;23.31;52.81
9893;BME280;4985;49.092;8.542;2023-05-23T12:43:59;99485.78;;;23.31;52.82
9893;BME280;4985;49.092;8.542;2023-05-23T12:46:26;99489.28;;;23.31;52.81
9893;BME280;4985;49.092;8.542;2023-05-23T12:48:54;99477.72;;;23.31;52.81
9893;BME280;4985;49.092;8.542;2023-05-23T12:51:21;99482.03;;;23.32;52.81
9893;BME280;4985;49.092;8.542;2023-05-23T12:53:48;99479.94;;;23.34;52.80
9893;BME280;4985;49.092;8.542;2023-05-23T12:56:14;99471.88;;;23.34;52.79
9893;BME280;4985;49.092;8.542;2023-05-23T12:58:41;99484.50;;;23.33;52.80
9893;BME280;4985;49.092;8.542;2023-05-23T13:01:08;99479.94;;;23.34;52.83
9893;BME280;4985;49.092;8.542;2023-05-23T13:03:35;99480.97;;;23.33;52.86
9893;BME280;4985;49.092;8.542;2023-05-23T13:06:03;99473.97;;;23.32;52.86
9893;BME280;4985;49.092;8.542;2023-05-23T13:08:30;99472.91;;;23.33;52.91
9893;BME280;4985;49.092;8.542;2023-05-23T13:10:57;99468.37;;;23.33;52.92
9893;BME280;4985;49.092;8.542;2023-05-23T13:13:25;99463.81;;;23.34;52.94
9893;BME280;4985;49.092;8.542;2023-05-23T13:15:51;99455.97;;;23.32;52.94
9893;BME280;4985;49.092;8.542;2023-05-23T13:18:19;99463.81;;;23.34;52.96
9893;BME280;4985;49.092;8.542;2023-05-23T13:20:45;99470.00;;;23.34;52.98
9893;BME280;4985;49.092;8.542;2023-05-23T13:23:13;99465.47;;;23.35;52.97
9893;BME280;4985;49.092;8.542;2023-05-23T13:25:40;99467.09;;;23.36;52.96
9893;BME280;4985;49.092;8.542;2023-05-23T13:28:06;99470.59;;;23.36;52.94